sensor_id;sensor_type;location;lat;lon;timestamp;P1;durP1;ratioP1;P2;durP2;ratioP2
60211;SDS011;46079;48.686;15.598;2023-05-14T00:00:34;6.53;;;2.35;;
60211;SDS011;46079;48.686;15.598;2023-05-14T00:03:00;6.95;;;2.50;;
60211;SDS011;46079;48.686;15.598;2023-05-14T00:05:25;6.72;;;2.60;;
60211;SDS011;46079;48.686;15.598;2023-05-14T00:07:51;6.25;;;2.38;;
60211;SDS011;46079;48.686;15.598;2023-05-14T00:10:16;6.47;;;2.40;;
60211;SDS011;46079;48.686;15.598;2023-05-14T00:12:44;6.35;;;2.60;;
60211;SDS011;46079;48.686;15.598;2023-05-14T00:15:09;7.07;;;2.50;;
60211;SDS011;46079;48.686;15.598;2023-05-14T00:17:35;6.10;;;2.22;;
60211;SDS011;46079;48.686;15.598;2023-05-14T00:20:01;6.80;;;2.38;;
60211;SDS011;46079;48.686;15.598;2023-05-14T00:22:31;6.57;;;2.25;;
60211;SDS011;46079;48.686;15.598;2023-05-14T00:25:01;6.85;;;2.50;;
60211;SDS011;46079;48.686;15.598;2023-05-14T00:27:26;6.75;;;2.60;;
60211;SDS011;46079;48.686;15.598;2023-05-14T00:29:51;6.55;;;2.40;;
60211;SDS011;46079;48.686;15.598;2023-05-14T00:32:17;6.57;;;2.38;;
60211;SDS011;46079;48.686;15.598;2023-05-14T00:34:42;6.03;;;2.30;;
60211;SDS011;46079;48.686;15.598;2023-05-14T00:37:07;6.47;;;2.40;;
60211;SDS011;46079;48.686;15.598;2023-05-14T00:39:33;6.60;;;2.63;;
60211;SDS011;46079;48.686;15.598;2023-05-14T00:41:58;6.40;;;2.58;;
60211;SDS011;46079;48.686;15.598;2023-05-14T00:44:24;6.05;;;2.15;;
60211;SDS011;46079;48.686;15.598;2023-05-14T00:46:49;6.30;;;2.58;;
60211;SDS011;46079;48.686;15.598;2023-05-14T00:49:15;6.68;;;2.50;;
60211;SDS011;46079;48.686;15.598;2023-05-14T00:51:41;5.93;;;2.25;;
60211;SDS011;46079;48.686;15.598;2023-05-14T00:54:10;6.63;;;2.55;;
60211;SDS011;46079;48.686;15.598;2023-05-14T00:56:37;6.50;;;2.35;;
60211;SDS011;46079;48.686;15.598;2023-05-14T00:59:02;6.32;;;2.50;;
60211;SDS011;46079;48.686;15.598;2023-05-14T01:01:28;6.00;;;2.28;;
60211;SDS011;46079;48.686;15.598;2023-05-14T01:03:53;6.90;;;2.40;;
60211;SDS011;46079;48.686;15.598;2023-05-14T01:09:04;6.32;;;2.28;;
60211;SDS011;46079;48.686;15.598;2023-05-14T01:11:39;6.50;;;2.50;;
60211;SDS011;46079;48.686;15.598;2023-05-14T01:16:55;6.80;;;2.67;;
60211;SDS011;46079;48.686;15.598;2023-05-14T01:22:04;5.97;;;2.17;;
60211;SDS011;46079;48.686;15.598;2023-05-14T01:24:30;7.38;;;2.50;;
60211;SDS011;46079;48.686;15.598;2023-05-14T01:26:57;6.78;;;2.50;;
60211;SDS011;46079;48.686;15.598;2023-05-14T01:29:27;6.82;;;2.53;;
60211;SDS011;46079;48.686;15.598;2023-05-14T01:31:54;6.63;;;2.58;;
60211;SDS011;46079;48.686;15.598;2023-05-14T01:34:21;5.93;;;2.17;;
60211;SDS011;46079;48.686;15.598;2023-05-14T01:36:50;7.15;;;2.60;;
60211;SDS011;46079;48.686;15.598;2023-05-14T01:39:17;6.35;;;2.25;;
60211;SDS011;46079;48.686;15.598;2023-05-14T01:41:43;6.78;;;2.60;;
60211;SDS011;46079;48.686;15.598;2023-05-14T01:44:10;6.53;;;2.40;;
60211;SDS011;46079;48.686;15.598;2023-05-14T01:46:36;6.15;;;2.42;;
60211;SDS011;46079;48.686;15.598;2023-05-14T01:49:02;6.28;;;2.17;;
60211;SDS011;46079;48.686;15.598;2023-05-14T01:51:27;7.57;;;2.60;;
60211;SDS011;46079;48.686;15.598;2023-05-14T01:53:53;6.63;;;2.30;;
60211;SDS011;46079;48.686;15.598;2023-05-14T01:56:19;6.75;;;2.50;;
60211;SDS011;46079;48.686;15.598;2023-05-14T01:58:49;6.53;;;2.42;;
60211;SDS011;46079;48.686;15.598;2023-05-14T02:01:15;6.07;;;2.38;;
60211;SDS011;46079;48.686;15.598;2023-05-14T02:03:40;6.53;;;2.47;;
60211;SDS011;46079;48.686;15.598;2023-05-14T02:06:06;6.30;;;2.42;;
60211;SDS011;46079;48.686;15.598;2023-05-14T02:08:31;6.57;;;2.40;;
60211;SDS011;46079;48.686;15.598;2023-05-14T02:10:56;6.45;;;2.42;;
60211;SDS011;46079;48.686;15.598;2023-05-14T02:13:22;7.28;;;2.58;;
60211;SDS011;46079;48.686;15.598;2023-05-14T02:15:48;6.93;;;2.70;;
60211;SDS011;46079;48.686;15.598;2023-05-14T02:18:14;6.93;;;2.40;;
60211;SDS011;46079;48.686;15.598;2023-05-14T02:20:39;6.25;;;2.22;;
60211;SDS011;46079;48.686;15.598;2023-05-14T02:23:05;6.47;;;2.40;;
60211;SDS011;46079;48.686;15.598;2023-05-14T02:25:31;6.30;;;2.15;;
60211;SDS011;46079;48.686;15.598;2023-05-14T02:27:56;6.38;;;2.30;;
60211;SDS011;46079;48.686;15.598;2023-05-14T02:30:21;6.93;;;2.35;;
60211;SDS011;46079;48.686;15.598;2023-05-14T02:32:47;6.47;;;2.50;;
60211;SDS011;46079;48.686;15.598;2023-05-14T02:35:12;6.78;;;2.30;;
60211;SDS011;46079;48.686;15.598;2023-05-14T02:37:37;6.57;;;2.42;;
60211;SDS011;46079;48.686;15.598;2023-05-14T02:40:03;5.55;;;2.17;;
60211;SDS011;46079;48.686;15.598;2023-05-14T02:42:29;6.68;;;2.50;;
60211;SDS011;46079;48.686;15.598;2023-05-14T02:44:54;6.88;;;2.60;;
60211;SDS011;46079;48.686;15.598;2023-05-14T02:47:20;7.00;;;2.70;;
60211;SDS011;46079;48.686;15.598;2023-05-14T02:49:45;6.10;;;2.33;;
60211;SDS011;46079;48.686;15.598;2023-05-14T02:52:10;6.13;;;2.10;;
60211;SDS011;46079;48.686;15.598;2023-05-14T02:54:36;5.93;;;2.30;;
60211;SDS011;46079;48.686;15.598;2023-05-14T02:57:01;7.00;;;2.53;;
60211;SDS011;46079;48.686;15.598;2023-05-14T02:59:27;6.35;;;2.50;;
60211;SDS011;46079;48.686;15.598;2023-05-14T03:01:52;5.90;;;2.33;;
60211;SDS011;46079;48.686;15.598;2023-05-14T03:04:17;6.18;;;2.10;;
60211;SDS011;46079;48.686;15.598;2023-05-14T03:06:43;5.90;;;2.20;;
60211;SDS011;46079;48.686;15.598;2023-05-14T03:09:08;6.40;;;2.20;;
60211;SDS011;46079;48.686;15.598;2023-05-14T03:11:36;6.60;;;2.40;;
60211;SDS011;46079;48.686;15.598;2023-05-14T03:14:02;6.53;;;2.40;;
60211;SDS011;46079;48.686;15.598;2023-05-14T03:16:27;6.45;;;2.40;;
60211;SDS011;46079;48.686;15.598;2023-05-14T03:18:52;6.05;;;2.38;;
60211;SDS011;46079;48.686;15.598;2023-05-14T03:21:18;6.65;;;2.50;;
60211;SDS011;46079;48.686;15.598;2023-05-14T03:23:43;6.15;;;2.30;;
60211;SDS011;46079;48.686;15.598;2023-05-14T03:26:09;6.45;;;2.45;;
60211;SDS011;46079;48.686;15.598;2023-05-14T03:28:34;5.90;;;2.10;;
60211;SDS011;46079;48.686;15.598;2023-05-14T03:30:59;6.60;;;2.40;;
60211;SDS011;46079;48.686;15.598;2023-05-14T03:33:25;6.70;;;2.33;;
60211;SDS011;46079;48.686;15.598;2023-05-14T03:35:50;5.95;;;2.22;;
60211;SDS011;46079;48.686;15.598;2023-05-14T03:38:16;6.35;;;2.30;;
60211;SDS011;46079;48.686;15.598;2023-05-14T03:40:42;6.07;;;2.15;;
60211;SDS011;46079;48.686;15.598;2023-05-14T03:43:08;6.45;;;2.25;;
60211;SDS011;46079;48.686;15.598;2023-05-14T03:45:34;6.88;;;2.40;;
60211;SDS011;46079;48.686;15.598;2023-05-14T03:47:59;6.10;;;2.25;;
60211;SDS011;46079;48.686;15.598;2023-05-14T03:50:25;6.38;;;2.40;;
60211;SDS011;46079;48.686;15.598;2023-05-14T03:52:50;6.45;;;2.40;;
60211;SDS011;46079;48.686;15.598;2023-05-14T03:55:17;5.28;;;2.10;;
60211;SDS011;46079;48.686;15.598;2023-05-14T03:57:46;5.65;;;2.05;;
60211;SDS011;46079;48.686;15.598;2023-05-14T04:00:12;6.15;;;2.22;;
60211;SDS011;46079;48.686;15.598;2023-05-14T04:02:37;6.22;;;2.20;;
60211;SDS011;46079;48.686;15.598;2023-05-14T04:05:03;6.10;;;2.20;;
60211;SDS011;46079;48.686;15.598;2023-05-14T04:07:29;6.15;;;2.30;;
60211;SDS011;46079;48.686;15.598;2023-05-14T04:09:54;6.72;;;2.53;;
60211;SDS011;46079;48.686;15.598;2023-05-14T04:12:20;6.20;;;2.30;;
60211;SDS011;46079;48.686;15.598;2023-05-14T04:14:46;6.00;;;2.20;;
60211;SDS011;46079;48.686;15.598;2023-05-14T04:17:11;5.57;;;2.08;;
60211;SDS011;46079;48.686;15.598;2023-05-14T04:19:36;6.43;;;2.38;;
60211;SDS011;46079;48.686;15.598;2023-05-14T04:22:03;6.22;;;2.45;;
60211;SDS011;46079;48.686;15.598;2023-05-14T04:24:29;6.28;;;2.20;;
60211;SDS011;46079;48.686;15.598;2023-05-14T04:26:54;5.78;;;2.20;;
60211;SDS011;46079;48.686;15.598;2023-05-14T04:29:19;6.78;;;2.60;;
60211;SDS011;46079;48.686;15.598;2023-05-14T04:31:45;6.32;;;2.55;;
60211;SDS011;46079;48.686;15.598;2023-05-14T04:34:10;6.15;;;2.30;;
60211;SDS011;46079;48.686;15.598;2023-05-14T04:36:36;6.38;;;2.15;;
60211;SDS011;46079;48.686;15.598;2023-05-14T04:39:01;6.32;;;2.35;;
60211;SDS011;46079;48.686;15.598;2023-05-14T04:41:27;6.38;;;2.28;;
60211;SDS011;46079;48.686;15.598;2023-05-14T04:43:54;6.00;;;2.20;;
60211;SDS011;46079;48.686;15.598;2023-05-14T04:46:20;6.20;;;2.08;;
60211;SDS011;46079;48.686;15.598;2023-05-14T04:48:46;6.13;;;2.20;;
60211;SDS011;46079;48.686;15.598;2023-05-14T04:51:12;6.68;;;2.40;;
60211;SDS011;46079;48.686;15.598;2023-05-14T04:53:38;6.45;;;2.28;;
60211;SDS011;46079;48.686;15.598;2023-05-14T04:56:03;5.25;;;1.85;;
60211;SDS011;46079;48.686;15.598;2023-05-14T04:58:29;6.50;;;2.20;;
60211;SDS011;46079;48.686;15.598;2023-05-14T05:00:56;5.78;;;2.10;;
60211;SDS011;46079;48.686;15.598;2023-05-14T05:03:22;5.80;;;2.00;;
60211;SDS011;46079;48.686;15.598;2023-05-14T05:05:47;5.68;;;2.00;;
60211;SDS011;46079;48.686;15.598;2023-05-14T05:08:13;6.05;;;2.10;;
60211;SDS011;46079;48.686;15.598;2023-05-14T05:10:38;5.22;;;2.00;;
60211;SDS011;46079;48.686;15.598;2023-05-14T05:13:04;5.97;;;2.05;;
60211;SDS011;46079;48.686;15.598;2023-05-14T05:15:29;5.95;;;2.33;;
60211;SDS011;46079;48.686;15.598;2023-05-14T05:17:54;5.90;;;2.03;;
60211;SDS011;46079;48.686;15.598;2023-05-14T05:20:20;5.93;;;2.20;;
60211;SDS011;46079;48.686;15.598;2023-05-14T05:22:45;6.05;;;2.30;;
60211;SDS011;46079;48.686;15.598;2023-05-14T05:25:11;7.45;;;2.40;;
60211;SDS011;46079;48.686;15.598;2023-05-14T05:27:37;5.63;;;2.15;;
60211;SDS011;46079;48.686;15.598;2023-05-14T05:30:03;6.10;;;2.17;;
60211;SDS011;46079;48.686;15.598;2023-05-14T05:32:29;6.22;;;2.17;;
60211;SDS011;46079;48.686;15.598;2023-05-14T05:34:55;6.78;;;2.50;;
60211;SDS011;46079;48.686;15.598;2023-05-14T05:37:21;6.00;;;2.30;;
60211;SDS011;46079;48.686;15.598;2023-05-14T05:39:49;5.43;;;1.98;;
60211;SDS011;46079;48.686;15.598;2023-05-14T05:42:14;5.75;;;2.20;;
60211;SDS011;46079;48.686;15.598;2023-05-14T05:44:40;6.43;;;2.25;;
60211;SDS011;46079;48.686;15.598;2023-05-14T05:47:05;6.18;;;1.95;;
60211;SDS011;46079;48.686;15.598;2023-05-14T05:49:31;6.60;;;2.20;;
60211;SDS011;46079;48.686;15.598;2023-05-14T05:51:56;5.35;;;1.95;;
60211;SDS011;46079;48.686;15.598;2023-05-14T05:54:22;5.50;;;2.03;;
60211;SDS011;46079;48.686;15.598;2023-05-14T05:56:49;6.13;;;2.13;;
60211;SDS011;46079;48.686;15.598;2023-05-14T05:59:14;6.20;;;2.13;;
60211;SDS011;46079;48.686;15.598;2023-05-14T06:01:39;6.40;;;2.20;;
60211;SDS011;46079;48.686;15.598;2023-05-14T06:04:07;5.40;;;2.10;;
60211;SDS011;46079;48.686;15.598;2023-05-14T06:06:33;5.90;;;2.20;;
60211;SDS011;46079;48.686;15.598;2023-05-14T06:08:58;5.88;;;2.15;;
60211;SDS011;46079;48.686;15.598;2023-05-14T06:11:25;5.10;;;1.90;;
60211;SDS011;46079;48.686;15.598;2023-05-14T06:13:51;5.78;;;2.25;;
60211;SDS011;46079;48.686;15.598;2023-05-14T06:16:16;5.63;;;1.92;;
60211;SDS011;46079;48.686;15.598;2023-05-14T06:18:42;5.25;;;2.00;;
60211;SDS011;46079;48.686;15.598;2023-05-14T06:21:07;5.68;;;2.00;;
60211;SDS011;46079;48.686;15.598;2023-05-14T06:23:33;6.07;;;2.28;;
60211;SDS011;46079;48.686;15.598;2023-05-14T06:25:58;5.75;;;2.15;;
60211;SDS011;46079;48.686;15.598;2023-05-14T06:28:23;6.07;;;2.10;;
60211;SDS011;46079;48.686;15.598;2023-05-14T06:30:49;6.22;;;2.10;;
60211;SDS011;46079;48.686;15.598;2023-05-14T06:33:14;5.50;;;1.90;;
60211;SDS011;46079;48.686;15.598;2023-05-14T06:35:40;4.68;;;1.80;;
60211;SDS011;46079;48.686;15.598;2023-05-14T06:38:05;5.18;;;1.95;;
60211;SDS011;46079;48.686;15.598;2023-05-14T06:40:30;5.90;;;2.00;;
60211;SDS011;46079;48.686;15.598;2023-05-14T06:42:56;5.38;;;2.03;;
60211;SDS011;46079;48.686;15.598;2023-05-14T06:45:21;5.63;;;2.00;;
60211;SDS011;46079;48.686;15.598;2023-05-14T06:47:47;5.90;;;2.30;;
60211;SDS011;46079;48.686;15.598;2023-05-14T06:50:12;5.20;;;2.00;;
60211;SDS011;46079;48.686;15.598;2023-05-14T06:52:37;5.40;;;1.95;;
60211;SDS011;46079;48.686;15.598;2023-05-14T06:55:03;5.32;;;1.98;;
60211;SDS011;46079;48.686;15.598;2023-05-14T06:57:28;5.20;;;1.95;;
60211;SDS011;46079;48.686;15.598;2023-05-14T06:59:54;5.22;;;2.00;;
60211;SDS011;46079;48.686;15.598;2023-05-14T07:02:19;5.35;;;1.90;;
60211;SDS011;46079;48.686;15.598;2023-05-14T07:04:45;5.05;;;1.83;;
60211;SDS011;46079;48.686;15.598;2023-05-14T07:07:10;5.95;;;2.20;;
60211;SDS011;46079;48.686;15.598;2023-05-14T07:09:39;5.25;;;1.90;;
60211;SDS011;46079;48.686;15.598;2023-05-14T07:12:06;6.18;;;2.10;;
60211;SDS011;46079;48.686;15.598;2023-05-14T07:14:32;5.20;;;1.90;;
60211;SDS011;46079;48.686;15.598;2023-05-14T07:16:57;5.80;;;2.20;;
60211;SDS011;46079;48.686;15.598;2023-05-14T07:19:22;4.95;;;1.83;;
60211;SDS011;46079;48.686;15.598;2023-05-14T07:21:48;6.03;;;2.08;;
60211;SDS011;46079;48.686;15.598;2023-05-14T07:24:13;5.15;;;1.90;;
60211;SDS011;46079;48.686;15.598;2023-05-14T07:26:39;4.95;;;1.70;;
60211;SDS011;46079;48.686;15.598;2023-05-14T07:29:04;5.90;;;2.10;;
60211;SDS011;46079;48.686;15.598;2023-05-14T07:31:30;5.53;;;2.05;;
60211;SDS011;46079;48.686;15.598;2023-05-14T07:33:55;5.70;;;2.03;;
60211;SDS011;46079;48.686;15.598;2023-05-14T07:36:20;5.85;;;2.05;;
60211;SDS011;46079;48.686;15.598;2023-05-14T07:38:46;5.70;;;2.22;;
60211;SDS011;46079;48.686;15.598;2023-05-14T07:41:11;6.40;;;2.20;;
60211;SDS011;46079;48.686;15.598;2023-05-14T07:43:37;5.57;;;2.03;;
60211;SDS011;46079;48.686;15.598;2023-05-14T07:46:03;6.05;;;2.00;;
60211;SDS011;46079;48.686;15.598;2023-05-14T07:48:28;6.40;;;2.13;;
60211;SDS011;46079;48.686;15.598;2023-05-14T07:50:54;5.60;;;2.30;;
60211;SDS011;46079;48.686;15.598;2023-05-14T07:53:19;5.03;;;1.75;;
60211;SDS011;46079;48.686;15.598;2023-05-14T07:55:45;6.07;;;2.20;;
60211;SDS011;46079;48.686;15.598;2023-05-14T07:58:12;6.20;;;2.20;;
60211;SDS011;46079;48.686;15.598;2023-05-14T08:00:38;4.90;;;1.73;;
60211;SDS011;46079;48.686;15.598;2023-05-14T08:03:03;5.85;;;2.17;;
60211;SDS011;46079;48.686;15.598;2023-05-14T08:05:29;6.60;;;2.20;;
60211;SDS011;46079;48.686;15.598;2023-05-14T08:07:55;5.25;;;1.83;;
60211;SDS011;46079;48.686;15.598;2023-05-14T08:10:21;5.43;;;2.03;;
60211;SDS011;46079;48.686;15.598;2023-05-14T08:12:46;5.88;;;2.15;;
60211;SDS011;46079;48.686;15.598;2023-05-14T08:15:12;5.70;;;2.03;;
60211;SDS011;46079;48.686;15.598;2023-05-14T08:17:37;5.75;;;1.92;;
60211;SDS011;46079;48.686;15.598;2023-05-14T08:20:03;5.65;;;2.00;;
60211;SDS011;46079;48.686;15.598;2023-05-14T08:22:30;5.38;;;1.90;;
60211;SDS011;46079;48.686;15.598;2023-05-14T08:24:56;5.65;;;2.05;;
60211;SDS011;46079;48.686;15.598;2023-05-14T08:27:21;5.63;;;2.08;;
60211;SDS011;46079;48.686;15.598;2023-05-14T08:29:47;5.60;;;1.90;;
60211;SDS011;46079;48.686;15.598;2023-05-14T08:32:12;6.03;;;1.98;;
60211;SDS011;46079;48.686;15.598;2023-05-14T08:34:37;5.53;;;2.03;;
60211;SDS011;46079;48.686;15.598;2023-05-14T08:37:03;6.00;;;2.10;;
60211;SDS011;46079;48.686;15.598;2023-05-14T08:39:28;5.18;;;1.90;;
60211;SDS011;46079;48.686;15.598;2023-05-14T08:41:54;5.35;;;1.90;;
60211;SDS011;46079;48.686;15.598;2023-05-14T08:47:14;5.82;;;2.03;;
60211;SDS011;46079;48.686;15.598;2023-05-14T08:49:42;5.72;;;1.92;;
60211;SDS011;46079;48.686;15.598;2023-05-14T08:52:16;5.78;;;2.00;;
60211;SDS011;46079;48.686;15.598;2023-05-14T08:54:42;6.13;;;2.05;;
60211;SDS011;46079;48.686;15.598;2023-05-14T08:57:10;5.20;;;1.90;;
60211;SDS011;46079;48.686;15.598;2023-05-14T08:59:37;5.53;;;1.95;;
60211;SDS011;46079;48.686;15.598;2023-05-14T09:02:02;5.43;;;1.90;;
60211;SDS011;46079;48.686;15.598;2023-05-14T09:04:30;5.78;;;2.00;;
60211;SDS011;46079;48.686;15.598;2023-05-14T09:06:56;5.63;;;2.03;;
60211;SDS011;46079;48.686;15.598;2023-05-14T09:09:26;6.13;;;2.05;;
60211;SDS011;46079;48.686;15.598;2023-05-14T09:11:52;5.53;;;1.90;;
60211;SDS011;46079;48.686;15.598;2023-05-14T09:14:18;4.60;;;1.67;;
60211;SDS011;46079;48.686;15.598;2023-05-14T09:16:45;5.35;;;1.90;;
60211;SDS011;46079;48.686;15.598;2023-05-14T09:19:12;5.20;;;1.88;;
60211;SDS011;46079;48.686;15.598;2023-05-14T09:21:39;5.75;;;1.95;;
60211;SDS011;46079;48.686;15.598;2023-05-14T09:24:06;5.35;;;1.80;;
60211;SDS011;46079;48.686;15.598;2023-05-14T09:26:32;5.00;;;1.90;;
60211;SDS011;46079;48.686;15.598;2023-05-14T09:28:59;5.30;;;1.85;;
60211;SDS011;46079;48.686;15.598;2023-05-14T09:31:26;4.97;;;1.83;;
60211;SDS011;46079;48.686;15.598;2023-05-14T09:34:02;6.03;;;2.00;;
60211;SDS011;46079;48.686;15.598;2023-05-14T09:36:28;5.25;;;1.95;;
60211;SDS011;46079;48.686;15.598;2023-05-14T09:38:56;5.55;;;1.85;;
60211;SDS011;46079;48.686;15.598;2023-05-14T09:41:22;6.65;;;2.20;;
60211;SDS011;46079;48.686;15.598;2023-05-14T09:43:49;5.35;;;1.80;;
60211;SDS011;46079;48.686;15.598;2023-05-14T09:46:15;6.00;;;2.13;;
60211;SDS011;46079;48.686;15.598;2023-05-14T09:48:41;5.15;;;1.98;;
60211;SDS011;46079;48.686;15.598;2023-05-14T09:51:06;5.30;;;2.00;;
60211;SDS011;46079;48.686;15.598;2023-05-14T09:53:34;5.70;;;1.90;;
60211;SDS011;46079;48.686;15.598;2023-05-14T09:55:59;5.63;;;1.90;;
60211;SDS011;46079;48.686;15.598;2023-05-14T09:58:25;5.45;;;1.90;;
60211;SDS011;46079;48.686;15.598;2023-05-14T10:00:50;6.07;;;2.05;;
60211;SDS011;46079;48.686;15.598;2023-05-14T10:03:17;5.72;;;2.05;;
60211;SDS011;46079;48.686;15.598;2023-05-14T10:05:44;6.60;;;2.22;;
60211;SDS011;46079;48.686;15.598;2023-05-14T10:08:21;5.93;;;2.00;;
60211;SDS011;46079;48.686;15.598;2023-05-14T10:10:51;5.78;;;1.90;;
60211;SDS011;46079;48.686;15.598;2023-05-14T10:13:22;5.72;;;2.10;;
60211;SDS011;46079;48.686;15.598;2023-05-14T10:16:10;5.47;;;2.13;;
60211;SDS011;46079;48.686;15.598;2023-05-14T10:18:53;6.13;;;2.20;;
60211;SDS011;46079;48.686;15.598;2023-05-14T10:21:24;5.18;;;1.83;;
60211;SDS011;46079;48.686;15.598;2023-05-14T10:23:53;5.82;;;2.10;;
60211;SDS011;46079;48.686;15.598;2023-05-14T10:26:19;5.53;;;1.85;;
60211;SDS011;46079;48.686;15.598;2023-05-14T10:28:45;6.00;;;1.92;;
60211;SDS011;46079;48.686;15.598;2023-05-14T10:31:12;5.70;;;1.92;;
60211;SDS011;46079;48.686;15.598;2023-05-14T10:33:47;5.65;;;1.90;;
60211;SDS011;46079;48.686;15.598;2023-05-14T10:36:17;6.03;;;1.90;;
60211;SDS011;46079;48.686;15.598;2023-05-14T10:38:44;5.38;;;1.98;;
60211;SDS011;46079;48.686;15.598;2023-05-14T10:41:11;6.00;;;2.10;;
60211;SDS011;46079;48.686;15.598;2023-05-14T10:43:40;5.13;;;1.77;;
60211;SDS011;46079;48.686;15.598;2023-05-14T10:46:06;5.55;;;2.08;;
60211;SDS011;46079;48.686;15.598;2023-05-14T10:48:34;4.80;;;1.80;;
60211;SDS011;46079;48.686;15.598;2023-05-14T10:51:01;6.20;;;2.10;;
60211;SDS011;46079;48.686;15.598;2023-05-14T10:53:36;5.72;;;1.95;;
60211;SDS011;46079;48.686;15.598;2023-05-14T10:56:07;5.80;;;1.98;;
60211;SDS011;46079;48.686;15.598;2023-05-14T10:58:34;5.70;;;2.00;;
60211;SDS011;46079;48.686;15.598;2023-05-14T11:01:01;5.97;;;1.90;;
60211;SDS011;46079;48.686;15.598;2023-05-14T11:03:30;5.68;;;1.77;;
60211;SDS011;46079;48.686;15.598;2023-05-14T11:05:56;5.60;;;2.00;;
60211;SDS011;46079;48.686;15.598;2023-05-14T11:08:22;5.25;;;1.92;;
60211;SDS011;46079;48.686;15.598;2023-05-14T11:10:50;5.85;;;2.10;;
60211;SDS011;46079;48.686;15.598;2023-05-14T11:13:22;5.43;;;1.85;;
60211;SDS011;46079;48.686;15.598;2023-05-14T11:15:50;5.88;;;2.00;;
60211;SDS011;46079;48.686;15.598;2023-05-14T11:18:29;5.95;;;2.20;;
60211;SDS011;46079;48.686;15.598;2023-05-14T11:20:59;5.28;;;1.80;;
60211;SDS011;46079;48.686;15.598;2023-05-14T11:23:25;6.28;;;2.22;;
60211;SDS011;46079;48.686;15.598;2023-05-14T11:25:51;5.93;;;2.00;;
60211;SDS011;46079;48.686;15.598;2023-05-14T11:28:19;5.28;;;1.83;;
60211;SDS011;46079;48.686;15.598;2023-05-14T11:30:51;5.53;;;1.90;;
60211;SDS011;46079;48.686;15.598;2023-05-14T11:33:18;6.38;;;2.20;;
60211;SDS011;46079;48.686;15.598;2023-05-14T11:35:44;5.93;;;2.10;;
60211;SDS011;46079;48.686;15.598;2023-05-14T11:38:17;5.88;;;1.80;;
60211;SDS011;46079;48.686;15.598;2023-05-14T11:40:53;5.72;;;1.95;;
60211;SDS011;46079;48.686;15.598;2023-05-14T11:43:22;5.65;;;1.95;;
60211;SDS011;46079;48.686;15.598;2023-05-14T11:45:51;6.07;;;2.00;;
60211;SDS011;46079;48.686;15.598;2023-05-14T11:48:18;5.30;;;1.90;;
60211;SDS011;46079;48.686;15.598;2023-05-14T11:50:48;5.65;;;1.70;;
60211;SDS011;46079;48.686;15.598;2023-05-14T11:53:16;5.93;;;2.08;;
60211;SDS011;46079;48.686;15.598;2023-05-14T11:55:55;5.82;;;1.90;;
60211;SDS011;46079;48.686;15.598;2023-05-14T11:58:22;5.93;;;2.00;;
60211;SDS011;46079;48.686;15.598;2023-05-14T12:00:48;6.22;;;2.03;;
60211;SDS011;46079;48.686;15.598;2023-05-14T12:03:14;5.25;;;1.90;;
60211;SDS011;46079;48.686;15.598;2023-05-14T12:05:40;5.70;;;1.85;;
60211;SDS011;46079;48.686;15.598;2023-05-14T12:08:19;6.43;;;2.22;;
60211;SDS011;46079;48.686;15.598;2023-05-14T12:10:45;5.47;;;1.83;;
60211;SDS011;46079;48.686;15.598;2023-05-14T12:13:13;5.38;;;1.85;;
60211;SDS011;46079;48.686;15.598;2023-05-14T12:15:43;5.78;;;2.05;;
60211;SDS011;46079;48.686;15.598;2023-05-14T12:18:09;5.57;;;1.90;;
60211;SDS011;46079;48.686;15.598;2023-05-14T12:20:35;5.20;;;1.85;;
60211;SDS011;46079;48.686;15.598;2023-05-14T12:23:00;5.13;;;1.75;;
60211;SDS011;46079;48.686;15.598;2023-05-14T12:25:26;4.82;;;1.80;;
60211;SDS011;46079;48.686;15.598;2023-05-14T12:27:53;5.80;;;1.90;;
60211;SDS011;46079;48.686;15.598;2023-05-14T12:30:18;5.75;;;2.20;;
60211;SDS011;46079;48.686;15.598;2023-05-14T12:32:44;4.80;;;1.73;;
60211;SDS011;46079;48.686;15.598;2023-05-14T12:35:10;5.32;;;1.90;;
60211;SDS011;46079;48.686;15.598;2023-05-14T12:37:36;5.13;;;1.98;;
60211;SDS011;46079;48.686;15.598;2023-05-14T12:40:04;5.30;;;1.92;;
60211;SDS011;46079;48.686;15.598;2023-05-14T12:42:35;6.05;;;2.13;;
60211;SDS011;46079;48.686;15.598;2023-05-14T12:45:01;5.88;;;1.80;;
60211;SDS011;46079;48.686;15.598;2023-05-14T12:47:31;5.85;;;2.00;;
60211;SDS011;46079;48.686;15.598;2023-05-14T12:49:57;6.00;;;1.83;;
60211;SDS011;46079;48.686;15.598;2023-05-14T12:52:22;5.22;;;1.90;;
60211;SDS011;46079;48.686;15.598;2023-05-14T12:54:48;5.45;;;1.95;;
60211;SDS011;46079;48.686;15.598;2023-05-14T12:57:17;5.65;;;1.80;;
60211;SDS011;46079;48.686;15.598;2023-05-14T12:59:42;5.25;;;2.00;;
60211;SDS011;46079;48.686;15.598;2023-05-14T13:02:07;5.75;;;1.98;;
60211;SDS011;46079;48.686;15.598;2023-05-14T13:04:33;5.97;;;1.90;;
60211;SDS011;46079;48.686;15.598;2023-05-14T13:07:02;4.47;;;1.70;;
60211;SDS011;46079;48.686;15.598;2023-05-14T13:09:27;5.13;;;1.75;;
60211;SDS011;46079;48.686;15.598;2023-05-14T13:11:52;5.50;;;1.80;;
60211;SDS011;46079;48.686;15.598;2023-05-14T13:14:18;5.10;;;1.88;;
60211;SDS011;46079;48.686;15.598;2023-05-14T13:16:43;5.07;;;1.80;;
60211;SDS011;46079;48.686;15.598;2023-05-14T13:19:09;5.45;;;1.90;;
60211;SDS011;46079;48.686;15.598;2023-05-14T13:21:34;5.40;;;1.90;;
60211;SDS011;46079;48.686;15.598;2023-05-14T13:24:00;5.13;;;1.80;;
60211;SDS011;46079;48.686;15.598;2023-05-14T13:26:25;5.20;;;1.65;;
60211;SDS011;46079;48.686;15.598;2023-05-14T13:28:52;5.10;;;1.80;;
60211;SDS011;46079;48.686;15.598;2023-05-14T13:31:18;4.85;;;1.85;;
60211;SDS011;46079;48.686;15.598;2023-05-14T13:33:43;4.97;;;1.70;;
60211;SDS011;46079;48.686;15.598;2023-05-14T13:36:09;5.25;;;1.85;;
60211;SDS011;46079;48.686;15.598;2023-05-14T13:38:37;4.93;;;1.60;;
60211;SDS011;46079;48.686;15.598;2023-05-14T13:41:03;5.28;;;1.83;;
60211;SDS011;46079;48.686;15.598;2023-05-14T13:43:32;5.13;;;1.73;;
60211;SDS011;46079;48.686;15.598;2023-05-14T13:45:59;5.30;;;1.97;;
60211;SDS011;46079;48.686;15.598;2023-05-14T13:48:25;6.22;;;2.00;;
60211;SDS011;46079;48.686;15.598;2023-05-14T13:50:52;5.25;;;1.90;;
60211;SDS011;46079;48.686;15.598;2023-05-14T13:53:18;6.13;;;1.90;;
60211;SDS011;46079;48.686;15.598;2023-05-14T13:55:44;5.55;;;1.80;;
60211;SDS011;46079;48.686;15.598;2023-05-14T13:58:10;6.03;;;1.77;;
60211;SDS011;46079;48.686;15.598;2023-05-14T14:00:36;5.60;;;2.00;;
60211;SDS011;46079;48.686;15.598;2023-05-14T14:03:01;5.75;;;1.90;;
60211;SDS011;46079;48.686;15.598;2023-05-14T14:05:27;4.72;;;1.75;;
60211;SDS011;46079;48.686;15.598;2023-05-14T14:07:53;5.50;;;1.80;;
60211;SDS011;46079;48.686;15.598;2023-05-14T14:10:19;4.90;;;1.70;;
60211;SDS011;46079;48.686;15.598;2023-05-14T14:12:45;5.32;;;1.92;;
60211;SDS011;46079;48.686;15.598;2023-05-14T14:15:11;5.03;;;1.80;;
60211;SDS011;46079;48.686;15.598;2023-05-14T14:17:36;6.30;;;2.00;;
60211;SDS011;46079;48.686;15.598;2023-05-14T14:20:03;4.75;;;1.60;;
60211;SDS011;46079;48.686;15.598;2023-05-14T14:22:30;4.50;;;1.77;;
60211;SDS011;46079;48.686;15.598;2023-05-14T14:24:55;4.85;;;1.80;;
60211;SDS011;46079;48.686;15.598;2023-05-14T14:27:21;5.43;;;1.80;;
60211;SDS011;46079;48.686;15.598;2023-05-14T14:29:46;5.63;;;1.80;;
60211;SDS011;46079;48.686;15.598;2023-05-14T14:32:12;5.93;;;1.90;;
60211;SDS011;46079;48.686;15.598;2023-05-14T14:34:37;5.63;;;1.80;;
60211;SDS011;46079;48.686;15.598;2023-05-14T14:37:03;5.22;;;1.80;;
60211;SDS011;46079;48.686;15.598;2023-05-14T14:39:28;5.68;;;1.90;;